Time;durP1;ratioP1;P1;durP2;ratioP2;P2;SDS_P1;SDS_P2;PMS_P1;PMS_P2;Temp;Humidity;BMP_temperature;BMP_pressure;BME280_temperature;BME280_humidity;BME280_pressure;Samples;Min_cycle;Max_cycle;Signal;HPM_P1;HPM_P2
2023/08/13 00:01:12;;;;;;;0.87;0.60;;;16.20;99.90;;;;;;5033974;28;20044;-72
2023/08/13 00:03:37;;;;;;;0.30;0.30;;;16.20;99.90;;;;;;5034283;28;20045;-71
2023/08/13 00:06:03;;;;;;;0.30;0.30;;;16.20;99.90;;;;;;5034152;28;20620;-72
2023/08/13 00:08:29;;;;;;;0.30;0.30;;;16.20;99.90;;;;;;5033883;28;20044;-71
2023/08/13 00:10:55;;;;;;;0.30;0.30;;;16.30;99.90;;;;;;5033815;28;20045;-71
2023/08/13 00:13:20;;;;;;;0.30;0.30;;;16.30;99.90;;;;;;5033500;28;20049;-71
2023/08/13 00:15:46;;;;;;;0.80;0.80;;;16.20;99.90;;;;;;5034878;28;20407;-72
2023/08/13 00:18:11;;;;;;;0.30;0.30;;;16.20;99.90;;;;;;5053861;28;20075;-71
2023/08/13 00:20:37;;;;;;;0.30;0.30;;;16.20;99.90;;;;;;5053308;28;20041;-71
2023/08/13 00:23:03;;;;;;;0.40;0.40;;;16.20;99.90;;;;;;5053201;28;20036;-72
2023/08/13 00:25:29;;;;;;;0.40;0.40;;;16.20;99.90;;;;;;5053391;28;20081;-71
2023/08/13 00:27:54;;;;;;;0.30;0.30;;;16.20;99.90;;;;;;5053353;28;20080;-71
2023/08/13 00:30:20;;;;;;;0.40;0.40;;;16.20;99.90;;;;;;5053504;28;20119;-72
2023/08/13 00:32:46;;;;;;;0.40;0.40;;;16.20;99.90;;;;;;5053466;28;20040;-71
2023/08/13 00:35:11;;;;;;;0.40;0.40;;;16.20;99.90;;;;;;5053453;28;20037;-72
2023/08/13 00:37:37;;;;;;;0.30;0.30;;;16.30;99.90;;;;;;5053479;28;20052;-71
2023/08/13 00:40:06;;;;;;;0.40;0.40;;;16.30;99.90;;;;;;5053694;28;20099;-72
2023/08/13 00:42:33;;;;;;;0.30;0.30;;;16.30;99.90;;;;;;5053375;28;20041;-71
2023/08/13 00:44:59;;;;;;;;;;;16.40;99.90;;;;;;5053714;28;20041;-72
2023/08/13 00:47:25;;;;;;;0.30;0.30;;;16.40;99.90;;;;;;5053020;28;19917;-71
2023/08/13 00:49:51;;;;;;;0.30;0.30;;;16.50;99.90;;;;;;5053330;28;20041;-71
2023/08/13 00:52:18;;;;;;;0.63;0.47;;;16.50;99.90;;;;;;5053300;28;20524;-72
2023/08/13 00:54:44;;;;;;;0.90;0.90;;;16.50;99.90;;;;;;5053257;28;20357;-71
2023/08/13 00:57:10;;;;;;;0.27;0.27;;;16.60;99.90;;;;;;5053249;28;20041;-71
2023/08/13 00:59:36;;;;;;;0.40;0.40;;;16.60;99.90;;;;;;5053240;28;20094;-72
2023/08/13 01:02:02;;;;;;;0.30;0.30;;;16.60;99.90;;;;;;5053138;28;20086;-71
2023/08/13 01:04:28;;;;;;;0.20;0.20;;;16.70;99.90;;;;;;5053153;28;20461;-71
2023/08/13 01:07:08;;;;;;;0.30;0.30;;;16.70;99.90;;;;;;5053504;28;20044;-72
2023/08/13 01:10:02;;;;;;;0.30;0.30;;;16.70;99.90;;;;;;5053135;28;20044;-71
2023/08/13 01:13:10;;;;;;;0.32;0.32;;;16.70;99.90;;;;;;5053059;28;20048;-71
2023/08/13 01:15:41;;;;;;;0.82;0.50;;;16.70;99.90;;;;;;5036967;28;20076;-71
2023/08/13 01:18:07;;;;;;;0.52;0.43;;;16.70;99.90;;;;;;5052575;28;20068;-72
2023/08/13 01:20:37;;;;;;;0.30;0.30;;;16.70;99.90;;;;;;5053118;28;20064;-72
2023/08/13 01:23:03;;;;;;;0.30;0.30;;;16.80;99.90;;;;;;5052672;28;20469;-72
2023/08/13 01:25:30;;;;;;;0.30;0.30;;;16.80;99.90;;;;;;5053383;28;20056;-71
2023/08/13 01:28:02;;;;;;;0.52;0.50;;;16.80;99.90;;;;;;5052955;28;20097;-71
2023/08/13 01:30:48;;;;;;;0.50;0.50;;;16.80;99.90;;;;;;5053017;28;20056;-72
2023/08/13 01:33:26;;;;;;;0.30;0.30;;;16.90;99.90;;;;;;5055096;28;20073;-71
2023/08/13 01:35:56;;;;;;;0.45;0.40;;;16.90;99.90;;;;;;5056783;28;20040;-72
2023/08/13 01:38:23;;;;;;;0.20;0.20;;;16.90;99.90;;;;;;5056817;28;20048;-71
2023/08/13 01:40:50;;;;;;;0.30;0.30;;;16.90;99.90;;;;;;5056468;28;20048;-72
2023/08/13 01:43:16;;;;;;;0.30;0.30;;;16.90;99.90;;;;;;5056315;28;20048;-71
2023/08/13 01:45:41;;;;;;;0.30;0.30;;;16.90;99.90;;;;;;5056360;28;20464;-71
2023/08/13 01:48:08;;;;;;;0.30;0.30;;;16.80;99.90;;;;;;5056321;28;20032;-72
2023/08/13 01:50:34;;;;;;;0.30;0.30;;;16.80;99.90;;;;;;5056264;28;20048;-72
2023/08/13 01:53:00;;;;;;;0.30;0.30;;;16.70;99.90;;;;;;5056054;28;20469;-72
2023/08/13 01:55:25;;;;;;;0.30;0.30;;;16.70;99.90;;;;;;5056231;28;20044;-72
2023/08/13 01:57:51;;;;;;;1.13;0.57;;;16.70;99.90;;;;;;5056363;28;20049;-72
2023/08/13 02:00:17;;;;;;;0.30;0.30;;;16.60;99.90;;;;;;5055905;28;20516;-72
2023/08/13 02:02:42;;;;;;;0.70;0.70;;;16.60;99.90;;;;;;5055633;28;20076;-72
2023/08/13 02:05:08;;;;;;;0.30;0.30;;;16.50;99.90;;;;;;5055975;28;20060;-71
2023/08/13 02:07:34;;;;;;;0.30;0.30;;;16.50;99.90;;;;;;5056036;28;20066;-71
2023/08/13 02:09:59;;;;;;;0.37;0.37;;;16.50;99.90;;;;;;5055863;28;20090;-72
2023/08/13 02:12:25;;;;;;;0.30;0.30;;;16.40;99.90;;;;;;5054713;28;20033;-71
2023/08/13 02:14:51;;;;;;;0.30;0.30;;;16.40;99.90;;;;;;5055533;28;20102;-72
2023/08/13 02:17:16;;;;;;;0.30;0.30;;;16.40;99.90;;;;;;5055653;28;20052;-72
2023/08/13 02:19:42;;;;;;;0.40;0.40;;;16.40;99.90;;;;;;5055270;28;20041;-71
2023/08/13 02:22:08;;;;;;;0.30;0.30;;;16.30;99.90;;;;;;5055694;28;20040;-72
2023/08/13 02:24:33;;;;;;;0.30;0.30;;;16.30;99.90;;;;;;5055564;28;20060;-72
2023/08/13 02:26:59;;;;;;;0.20;0.20;;;16.30;99.90;;;;;;5055607;28;20377;-71
2023/08/13 02:29:25;;;;;;;0.30;0.30;;;16.20;99.90;;;;;;5055565;28;20522;-71
2023/08/13 02:31:50;;;;;;;0.30;0.30;;;16.20;99.90;;;;;;5055438;28;20412;-72
2023/08/13 02:34:16;;;;;;;0.30;0.30;;;16.20;99.90;;;;;;5055455;28;20041;-72
2023/08/13 02:36:42;;;;;;;0.30;0.30;;;16.10;99.90;;;;;;5055746;28;20094;-72
2023/08/13 02:39:07;;;;;;;0.50;0.50;;;16.10;99.90;;;;;;5055361;28;20090;-72
2023/08/13 02:41:33;;;;;;;0.40;0.40;;;16.10;99.90;;;;;;5055287;28;20036;-71
2023/08/13 02:43:59;;;;;;;0.30;0.30;;;16.00;99.90;;;;;;5055002;28;20044;-72
2023/08/13 02:46:26;;;;;;;0.47;0.47;;;16.00;99.90;;;;;;5055155;28;20124;-71
2023/08/13 02:48:55;;;;;;;0.30;0.30;;;16.00;99.90;;;;;;5055329;28;20032;-71
2023/08/13 02:51:22;;;;;;;3.53;0.73;;;16.00;99.90;;;;;;5055504;28;20060;-71
2023/08/13 02:53:48;;;;;;;;;;;15.90;99.90;;;;;;5055447;28;20041;-72
2023/08/13 02:56:13;;;;;;;0.40;0.40;;;15.90;99.90;;;;;;5055310;28;19984;-72
2023/08/13 02:58:39;;;;;;;0.40;0.40;;;15.90;99.90;;;;;;5054951;28;20044;-71
2023/08/13 03:01:05;;;;;;;0.30;0.30;;;15.90;99.90;;;;;;5054926;28;20119;-72
2023/08/13 03:03:30;;;;;;;0.40;0.40;;;15.80;99.90;;;;;;5055308;28;20037;-72
2023/08/13 03:05:57;;;;;;;0.40;0.40;;;15.80;99.90;;;;;;5055174;28;20037;-72
2023/08/13 03:08:23;;;;;;;0.60;0.60;;;15.80;99.90;;;;;;5054811;28;20385;-72
2023/08/13 03:10:49;;;;;;;0.53;0.53;;;15.70;99.90;;;;;;5054783;28;20036;-72
2023/08/13 03:13:15;;;;;;;0.30;0.30;;;15.70;99.90;;;;;;5054728;28;20480;-72
2023/08/13 03:15:41;;;;;;;0.50;0.50;;;15.80;99.90;;;;;;5054348;28;20427;-71
2023/08/13 03:18:07;;;;;;;0.30;0.30;;;15.80;99.90;;;;;;5054850;28;20060;-72
2023/08/13 03:20:33;;;;;;;0.30;0.30;;;15.70;99.90;;;;;;5054499;28;20469;-71
2023/08/13 03:22:58;;;;;;;0.30;0.30;;;15.70;99.90;;;;;;5054607;28;20049;-72
2023/08/13 03:25:25;;;;;;;0.30;0.30;;;15.70;99.90;;;;;;5054730;28;20040;-71
2023/08/13 03:27:50;;;;;;;0.30;0.30;;;15.70;99.90;;;;;;5054219;28;20128;-71
2023/08/13 03:30:16;;;;;;;0.47;0.47;;;15.70;99.90;;;;;;5054390;28;20544;-71
2023/08/13 03:32:42;;;;;;;0.30;0.30;;;15.70;99.90;;;;;;5054310;28;20473;-72
2023/08/13 03:35:08;;;;;;;0.30;0.30;;;15.60;99.90;;;;;;5053658;28;20076;-72
2023/08/13 03:37:33;;;;;;;0.30;0.30;;;15.60;99.90;;;;;;5054313;28;20041;-72
2023/08/13 03:39:59;;;;;;;0.20;0.20;;;15.60;99.90;;;;;;5054746;28;20033;-72
2023/08/13 03:42:25;;;;;;;0.30;0.30;;;15.60;99.90;;;;;;5054070;28;20045;-72
2023/08/13 03:44:50;;;;;;;0.30;0.30;;;15.50;99.90;;;;;;5054076;28;20045;-72
2023/08/13 03:47:16;;;;;;;0.47;0.40;;;15.50;99.90;;;;;;5054560;28;20052;-72
2023/08/13 03:49:42;;;;;;;0.30;0.30;;;15.50;99.90;;;;;;5054488;28;20144;-72
2023/08/13 03:52:09;;;;;;;0.40;0.40;;;15.50;99.90;;;;;;5053988;28;20475;-72
2023/08/13 03:54:35;;;;;;;0.30;0.30;;;15.50;99.90;;;;;;5053768;28;20037;-72
2023/08/13 03:57:01;;;;;;;0.30;0.30;;;15.40;99.90;;;;;;5053806;28;20056;-72
2023/08/13 03:59:26;;;;;;;0.40;0.40;;;15.40;99.90;;;;;;5053547;28;20052;-71
2023/08/13 04:01:52;;;;;;;0.40;0.40;;;15.40;99.90;;;;;;5053754;28;20123;-71
2023/08/13 04:04:17;;;;;;;0.40;0.40;;;15.30;99.90;;;;;;5054194;28;20037;-71
2023/08/13 04:06:43;;;;;;;0.30;0.30;;;15.30;99.90;;;;;;5053686;28;20037;-71
2023/08/13 04:09:09;;;;;;;2.03;0.93;;;15.30;99.90;;;;;;5053045;28;20116;-72
2023/08/13 04:11:35;;;;;;;0.57;0.57;;;15.30;99.90;;;;;;5052469;28;20036;-71
2023/08/13 04:14:00;;;;;;;0.40;0.40;;;15.30;99.90;;;;;;5053678;28;20469;-72
2023/08/13 04:16:26;;;;;;;0.40;0.40;;;15.30;99.90;;;;;;5053566;28;20120;-71
2023/08/13 04:18:52;;;;;;;0.40;0.40;;;15.30;99.90;;;;;;5054091;28;20053;-71
2023/08/13 04:21:18;;;;;;;0.30;0.30;;;15.30;99.90;;;;;;5053631;28;20123;-71
2023/08/13 04:23:44;;;;;;;0.30;0.30;;;15.30;99.90;;;;;;5053857;28;20033;-71
2023/08/13 04:26:10;;;;;;;0.40;0.40;;;15.30;99.90;;;;;;5053776;28;20076;-72
2023/08/13 04:28:36;;;;;;;0.40;0.40;;;15.30;99.90;;;;;;5053602;28;20087;-71
2023/08/13 04:31:01;;;;;;;0.30;0.30;;;15.30;99.90;;;;;;5053373;28;20428;-72
2023/08/13 04:33:27;;;;;;;0.30;0.30;;;15.30;99.90;;;;;;5053456;28;20052;-72
2023/08/13 04:35:54;;;;;;;0.40;0.40;;;15.30;99.90;;;;;;5053263;28;20080;-71
2023/08/13 04:38:20;;;;;;;;;;;15.30;99.90;;;;;;5054124;28;20049;-72
2023/08/13 04:40:49;;;;;;;0.60;0.60;;;15.40;99.90;;;;;;5053381;28;20234;-72
2023/08/13 04:43:16;;;;;;;0.40;0.40;;;15.40;99.90;;;;;;5053258;28;20465;-71
2023/08/13 04:45:46;;;;;;;0.30;0.30;;;15.30;99.90;;;;;;5053381;28;20087;-71
2023/08/13 04:48:16;;;;;;;0.40;0.40;;;15.40;99.90;;;;;;5053363;28;20081;-71
2023/08/13 04:50:42;;;;;;;0.30;0.30;;;15.30;99.90;;;;;;5053337;28;20045;-72
2023/08/13 04:53:07;;;;;;;0.37;0.37;;;15.40;99.90;;;;;;5053509;28;20044;-71
2023/08/13 04:55:33;;;;;;;0.47;0.40;;;15.40;99.90;;;;;;5053360;28;20049;-71
2023/08/13 04:57:58;;;;;;;0.45;0.45;;;15.40;99.90;;;;;;5053300;28;20045;-72
2023/08/13 05:00:24;;;;;;;0.40;0.40;;;15.50;99.90;;;;;;5053180;28;20029;-71
2023/08/13 05:02:50;;;;;;;0.30;0.30;;;15.50;99.90;;;;;;5053136;28;20463;-72
2023/08/13 05:05:15;;;;;;;1.73;0.90;;;15.50;99.90;;;;;;5053255;28;20052;-72
2023/08/13 05:07:41;;;;;;;0.40;0.40;;;15.60;99.90;;;;;;5054641;28;20067;-71
2023/08/13 05:10:07;;;;;;;0.40;0.40;;;15.70;99.90;;;;;;5057272;28;20037;-72
2023/08/13 05:12:33;;;;;;;0.40;0.40;;;15.70;99.90;;;;;;5056833;28;20036;-72
2023/08/13 05:14:58;;;;;;;0.30;0.30;;;15.80;99.90;;;;;;5056934;28;20033;-71
2023/08/13 05:17:25;;;;;;;0.30;0.30;;;15.90;99.90;;;;;;5057077;28;20053;-71
2023/08/13 05:19:51;;;;;;;0.40;0.40;;;15.90;99.90;;;;;;5056849;28;20036;-71
2023/08/13 05:22:17;;;;;;;0.40;0.40;;;15.90;99.90;;;;;;5056890;28;20071;-71
2023/08/13 05:24:43;;;;;;;0.30;0.30;;;15.90;99.90;;;;;;5056924;28;20048;-72
2023/08/13 05:27:09;;;;;;;0.40;0.40;;;16.00;99.90;;;;;;5056874;28;20037;-72
2023/08/13 05:29:35;;;;;;;0.30;0.30;;;16.10;99.90;;;;;;5056653;28;20051;-72
2023/08/13 05:32:00;;;;;;;0.40;0.40;;;16.20;99.90;;;;;;5056617;28;20056;-72
2023/08/13 05:34:26;;;;;;;0.47;0.47;;;16.20;99.90;;;;;;5056656;28;20048;-72
2023/08/13 05:36:52;;;;;;;0.40;0.40;;;16.20;99.90;;;;;;5056525;28;20465;-72
2023/08/13 05:39:17;;;;;;;0.30;0.30;;;16.20;99.90;;;;;;5056458;28;20041;-72
2023/08/13 05:41:43;;;;;;;1.37;0.90;;;16.30;99.90;;;;;;5056456;28;20037;-72
2023/08/13 05:44:08;;;;;;;0.50;0.50;;;16.30;99.90;;;;;;5056277;28;20037;-71
2023/08/13 05:46:34;;;;;;;0.30;0.30;;;16.30;99.90;;;;;;5056121;28;20124;-71
2023/08/13 05:48:59;;;;;;;0.47;0.47;;;16.30;99.90;;;;;;5056334;28;20369;-71
2023/08/13 05:51:25;;;;;;;0.30;0.30;;;16.40;99.90;;;;;;5056267;28;20037;-71
2023/08/13 05:53:53;;;;;;;0.30;0.30;;;16.40;99.90;;;;;;5056492;28;20032;-71
2023/08/13 05:56:19;;;;;;;0.30;0.30;;;16.50;99.90;;;;;;5056297;28;20044;-71
2023/08/13 05:58:45;;;;;;;0.30;0.30;;;16.50;99.90;;;;;;5056143;28;20041;-73
2023/08/13 06:01:11;;;;;;;0.30;0.30;;;16.60;99.90;;;;;;5056101;28;20445;-72
2023/08/13 06:03:36;;;;;;;0.47;0.47;;;16.60;99.90;;;;;;5055920;28;20041;-72
2023/08/13 06:06:02;;;;;;;0.33;0.33;;;16.70;99.90;;;;;;5056450;28;20036;-72
2023/08/13 06:08:28;;;;;;;0.40;0.40;;;16.70;99.90;;;;;;5055962;28;20044;-72
2023/08/13 06:10:53;;;;;;;0.40;0.40;;;16.80;99.90;;;;;;5055920;28;20179;-72
2023/08/13 06:13:19;;;;;;;0.30;0.30;;;16.90;99.90;;;;;;5055803;28;20033;-72
2023/08/13 06:15:44;;;;;;;0.30;0.30;;;17.00;99.90;;;;;;5055865;28;20056;-72
2023/08/13 06:18:10;;;;;;;0.30;0.30;;;17.00;99.90;;;;;;5055266;28;20049;-73
2023/08/13 06:20:36;;;;;;;0.30;0.30;;;17.10;99.90;;;;;;5055757;28;20047;-72
2023/08/13 06:23:01;;;;;;;0.50;0.50;;;17.10;99.90;;;;;;5055291;28;20179;-73
2023/08/13 06:25:27;;;;;;;0.30;0.30;;;17.10;99.90;;;;;;5055695;28;20044;-76
2023/08/13 06:27:53;;;;;;;0.33;0.33;;;17.10;99.90;;;;;;5055595;28;20424;-77
2023/08/13 06:30:18;;;;;;;0.30;0.30;;;17.20;99.90;;;;;;5055533;28;20403;-77
2023/08/13 06:32:44;;;;;;;0.33;0.33;;;17.40;99.90;;;;;;5055533;28;20087;-77
2023/08/13 06:35:10;;;;;;;0.40;0.40;;;17.50;99.90;;;;;;5055495;28;20090;-77
2023/08/13 06:37:35;;;;;;;0.23;0.23;;;17.60;99.90;;;;;;5055487;28;20033;-76
2023/08/13 06:40:01;;;;;;;2.43;0.50;;;17.80;99.90;;;;;;5055390;28;20037;-75
2023/08/13 06:42:27;;;;;;;0.40;0.40;;;17.80;99.90;;;;;;5055253;28;20072;-76
2023/08/13 06:44:52;;;;;;;4.03;0.40;;;18.00;99.90;;;;;;5055211;28;20456;-72
2023/08/13 06:47:18;;;;;;;0.20;0.20;;;18.00;99.90;;;;;;5055410;28;20041;-72
2023/08/13 06:49:44;;;;;;;0.40;0.40;;;18.20;99.90;;;;;;5055308;28;20040;-73
2023/08/13 06:52:09;;;;;;;0.20;0.20;;;18.30;99.90;;;;;;5053978;28;20087;-72
2023/08/13 06:54:35;;;;;;;0.50;0.40;;;18.40;99.90;;;;;;5055109;28;20051;-72
2023/08/13 06:57:01;;;;;;;0.50;0.50;;;18.60;99.90;;;;;;5055188;28;20067;-74
2023/08/13 06:59:27;;;;;;;0.60;0.60;;;18.70;99.90;;;;;;5054907;28;20044;-71
2023/08/13 07:01:52;;;;;;;0.40;0.40;;;18.80;99.90;;;;;;5054634;28;20044;-72
2023/08/13 07:04:18;;;;;;;1.40;0.60;;;18.90;99.90;;;;;;5055007;28;20453;-73
2023/08/13 07:06:44;;;;;;;0.87;0.60;;;19.00;99.90;;;;;;5054811;28;20043;-72
2023/08/13 07:09:10;;;;;;;0.70;0.70;;;19.10;99.90;;;;;;5054828;28;20077;-71
2023/08/13 07:11:36;;;;;;;0.50;0.50;;;19.20;99.90;;;;;;5054759;28;20080;-73
2023/08/13 07:14:05;;;;;;;0.20;0.20;;;19.30;99.90;;;;;;5054632;28;20054;-71
2023/08/13 07:16:30;;;;;;;0.52;0.40;;;19.40;99.90;;;;;;5055118;28;20346;-72
2023/08/13 07:18:56;;;;;;;2.70;0.77;;;19.40;99.90;;;;;;5054946;28;20052;-75
2023/08/13 07:21:22;;;;;;;0.30;0.30;;;19.40;99.90;;;;;;5054583;28;20037;-75
2023/08/13 07:23:48;;;;;;;0.60;0.60;;;19.50;99.90;;;;;;5054668;28;20457;-71
2023/08/13 07:26:14;;;;;;;0.30;0.30;;;19.50;99.90;;;;;;5054293;28;20384;-72
2023/08/13 07:28:40;;;;;;;0.30;0.30;;;19.60;99.90;;;;;;5054279;28;20090;-71
2023/08/13 07:31:07;;;;;;;0.40;0.40;;;19.60;99.90;;;;;;5053532;28;20052;-73
2023/08/13 07:33:33;;;;;;;0.22;0.22;;;19.70;99.90;;;;;;5053454;28;20465;-74
2023/08/13 07:36:00;;;;;;;0.30;0.30;;;19.80;99.90;;;;;;5052724;28;20500;-71
2023/08/13 07:38:26;;;;;;;;;;;19.90;99.90;;;;;;5052299;28;20041;-74
2023/08/13 07:40:51;;;;;;;0.30;0.30;;;19.90;99.90;;;;;;5052973;28;20422;-71
2023/08/13 07:43:17;;;;;;;0.30;0.30;;;20.00;99.90;;;;;;5053011;28;20095;-73
2023/08/13 07:45:43;;;;;;;0.53;0.40;;;20.00;99.90;;;;;;5054060;28;20045;-74
2023/08/13 07:48:09;;;;;;;0.93;0.60;;;20.10;99.90;;;;;;5054243;28;20041;-72
2023/08/13 07:50:35;;;;;;;0.30;0.30;;;20.20;99.90;;;;;;5053900;28;20037;-72
2023/08/13 07:53:00;;;;;;;0.30;0.30;;;20.20;99.90;;;;;;5054005;28;20079;-73
2023/08/13 07:55:26;;;;;;;0.30;0.30;;;20.10;99.90;;;;;;5053962;28;20369;-70
2023/08/13 07:57:51;;;;;;;0.30;0.30;;;20.10;99.90;;;;;;5053492;28;20162;-72
2023/08/13 08:00:17;;;;;;;0.30;0.30;;;20.00;99.90;;;;;;5054306;28;20044;-71
2023/08/13 08:02:43;;;;;;;0.50;0.50;;;20.00;99.90;;;;;;5053751;28;20095;-71
2023/08/13 08:05:10;;;;;;;0.30;0.30;;;20.00;99.90;;;;;;5053707;28;20483;-73
2023/08/13 08:07:36;;;;;;;0.32;0.32;;;20.00;99.90;;;;;;5053752;28;20414;-71
2023/08/13 08:10:02;;;;;;;0.20;0.20;;;20.10;99.90;;;;;;5053918;28;20382;-73
2023/08/13 08:12:28;;;;;;;0.63;0.63;;;20.20;99.90;;;;;;5053580;28;20048;-71
2023/08/13 08:14:54;;;;;;;0.20;0.20;;;20.30;99.90;;;;;;5053314;28;20033;-74
2023/08/13 08:17:20;;;;;;;0.20;0.20;;;20.40;99.90;;;;;;5053300;28;20110;-71
2023/08/13 08:19:48;;;;;;;0.33;0.33;;;20.50;99.90;;;;;;5053912;28;20408;-73
2023/08/13 08:22:14;;;;;;;0.40;0.40;;;20.50;99.90;;;;;;5053578;28;20095;-72
2023/08/13 08:24:40;;;;;;;0.30;0.30;;;20.50;99.90;;;;;;5053418;28;20071;-71
2023/08/13 08:27:07;;;;;;;0.60;0.60;;;20.60;99.90;;;;;;5053160;28;20424;-73
2023/08/13 08:29:34;;;;;;;0.30;0.30;;;20.60;99.90;;;;;;5053822;28;20041;-74
2023/08/13 08:31:59;;;;;;;0.30;0.30;;;20.60;99.90;;;;;;5053359;28;20044;-72
2023/08/13 08:34:26;;;;;;;0.77;0.70;;;20.80;99.90;;;;;;5053780;28;20047;-71
2023/08/13 08:36:51;;;;;;;0.30;0.30;;;20.90;99.90;;;;;;5053607;28;20462;-71
2023/08/13 08:39:18;;;;;;;0.30;0.30;;;21.00;99.90;;;;;;5053387;28;20080;-73
2023/08/13 08:41:46;;;;;;;0.82;0.68;;;21.10;99.90;;;;;;5055177;28;20267;-71
2023/08/13 08:44:20;;;;;;;0.30;0.30;;;21.10;99.90;;;;;;5057114;28;20041;-70
2023/08/13 08:46:48;;;;;;;0.73;0.40;;;21.30;99.90;;;;;;5057579;28;20044;-72
2023/08/13 08:49:17;;;;;;;0.47;0.47;;;21.40;99.90;;;;;;5057437;28;20389;-71
2023/08/13 08:51:43;;;;;;;0.30;0.30;;;21.50;99.90;;;;;;5057587;28;20045;-73
2023/08/13 08:54:08;;;;;;;0.40;0.40;;;21.50;99.90;;;;;;5057480;28;20097;-72
2023/08/13 08:56:34;;;;;;;1.50;0.67;;;21.60;99.90;;;;;;5057248;28;20111;-72
2023/08/13 08:59:00;;;;;;;1.07;0.73;;;21.50;99.90;;;;;;5057817;28;20068;-71
2023/08/13 09:01:25;;;;;;;0.50;0.50;;;21.60;99.90;;;;;;5057222;28;20041;-73
2023/08/13 09:03:51;;;;;;;0.20;0.20;;;21.60;99.90;;;;;;5072587;28;20041;-74
2023/08/13 09:06:17;;;;;;;0.30;0.30;;;21.70;99.90;;;;;;5057154;28;20041;-72
2023/08/13 09:08:42;;;;;;;0.30;0.30;;;21.80;99.90;;;;;;5057131;28;20051;-72
2023/08/13 09:11:09;;;;;;;0.30;0.30;;;21.80;99.90;;;;;;5057051;28;20041;-74
2023/08/13 09:13:34;;;;;;;0.30;0.30;;;21.90;99.90;;;;;;5057008;28;20079;-71
2023/08/13 09:16:00;;;;;;;0.40;0.40;;;21.90;99.90;;;;;;5057109;28;20041;-74
2023/08/13 09:18:26;;;;;;;0.53;0.43;;;22.00;99.90;;;;;;5056992;28;20103;-71
2023/08/13 09:20:51;;;;;;;0.77;0.60;;;22.00;99.90;;;;;;5057093;28;20416;-73
2023/08/13 09:23:24;;;;;;;0.30;0.30;;;22.10;99.90;;;;;;5056751;28;20056;-72
2023/08/13 09:25:53;;;;;;;0.30;0.30;;;22.20;99.90;;;;;;5056644;28;20045;-72
2023/08/13 09:28:19;;;;;;;0.30;0.30;;;22.20;99.90;;;;;;5057072;28;20041;-73
2023/08/13 09:30:46;;;;;;;0.40;0.40;;;22.20;99.90;;;;;;5056688;28;20037;-72
2023/08/13 09:33:14;;;;;;;0.20;0.20;;;22.20;99.90;;;;;;5056292;28;20393;-71
2023/08/13 09:35:41;;;;;;;0.32;0.32;;;22.30;99.90;;;;;;5056365;28;20049;-72
2023/08/13 09:38:06;;;;;;;0.43;0.43;;;22.30;99.90;;;;;;5056223;28;20164;-71
2023/08/13 09:40:33;;;;;;;0.20;0.20;;;22.30;99.90;;;;;;5056103;28;20143;-73
2023/08/13 09:43:05;;;;;;;0.30;0.30;;;22.40;99.90;;;;;;5056232;28;20032;-72
2023/08/13 09:45:32;;;;;;;0.40;0.40;;;22.50;99.90;;;;;;5056413;28;20412;-71
2023/08/13 09:48:04;;;;;;;0.30;0.30;;;22.70;99.90;;;;;;5056277;28;20393;-73
2023/08/13 09:50:34;;;;;;;0.25;0.25;;;22.70;99.90;;;;;;5056494;28;20036;-72
2023/08/13 09:53:02;;;;;;;0.28;0.28;;;22.80;99.90;;;;;;5054971;28;20163;-72
2023/08/13 09:55:31;;;;;;;0.30;0.30;;;22.80;99.90;;;;;;5056768;28;20029;-74
2023/08/13 09:58:01;;;;;;;0.20;0.20;;;22.80;99.90;;;;;;5055827;28;20534;-73
2023/08/13 10:00:27;;;;;;;0.30;0.30;;;22.80;99.90;;;;;;5056120;28;20088;-73
2023/08/13 10:02:53;;;;;;;;;;;22.80;99.90;;;;;;5056440;28;20144;-71
2023/08/13 10:05:19;;;;;;;0.25;0.25;;;22.80;99.90;;;;;;5055977;28;20420;-71
2023/08/13 10:07:45;;;;;;;0.20;0.20;;;22.80;99.90;;;;;;5056030;28;20056;-72
2023/08/13 10:10:11;;;;;;;0.30;0.30;;;22.80;99.90;;;;;;5056143;28;20377;-73
2023/08/13 10:12:38;;;;;;;0.20;0.20;;;22.90;99.90;;;;;;5055589;28;20044;-73
2023/08/13 10:15:04;;;;;;;;;;;23.00;99.90;;;;;;5056227;28;20044;-72
2023/08/13 10:17:30;;;;;;;0.20;0.20;;;23.00;99.90;;;;;;5055221;28;19916;-73
2023/08/13 10:19:58;;;;;;;0.20;0.20;;;22.90;99.90;;;;;;5055837;28;20373;-74
2023/08/13 10:22:32;;;;;;;0.30;0.30;;;23.00;99.90;;;;;;5055310;28;20049;-72
2023/08/13 10:24:59;;;;;;;0.20;0.20;;;22.90;99.90;;;;;;5055572;28;20048;-72
2023/08/13 10:27:26;;;;;;;0.32;0.32;;;22.90;99.90;;;;;;5055520;28;20051;-72
2023/08/13 10:30:02;;;;;;;;;;;22.90;99.90;;;;;;5055930;28;20040;-72
2023/08/13 10:32:28;;;;;;;0.20;0.20;;;22.80;99.90;;;;;;5055513;28;20344;-72
2023/08/13 10:34:54;;;;;;;0.20;0.20;;;22.80;99.90;;;;;;5055378;28;20041;-70
2023/08/13 10:37:21;;;;;;;;;;;22.80;99.90;;;;;;5056293;28;20045;-72
2023/08/13 10:40:08;;;;;;;0.20;0.20;;;22.80;99.90;;;;;;5055329;28;19924;-71
2023/08/13 10:42:36;;;;;;;0.38;0.38;;;23.00;99.90;;;;;;5055222;28;20047;-71
2023/08/13 10:45:07;;;;;;;0.50;0.30;;;23.10;99.90;;;;;;5055226;28;20099;-70
2023/08/13 10:47:50;;;;;;;0.70;0.57;;;23.40;99.90;;;;;;5055128;28;20040;-72
2023/08/13 10:50:27;;;;;;;0.28;0.28;;;23.50;99.90;;;;;;5055528;28;20090;-72
2023/08/13 10:52:59;;;;;;;0.20;0.20;;;23.60;99.90;;;;;;5053118;28;20043;-71
2023/08/13 10:55:27;;;;;;;0.20;0.20;;;23.60;99.90;;;;;;5053300;28;20295;-72
2023/08/13 10:57:53;;;;;;;0.38;0.38;;;23.50;99.90;;;;;;5053630;28;20475;-73
2023/08/13 11:00:22;;;;;;;0.20;0.20;;;23.50;99.90;;;;;;5054347;28;20123;-72
2023/08/13 11:02:53;;;;;;;0.20;0.20;;;23.50;99.90;;;;;;5054093;28;20362;-71
2023/08/13 11:05:21;;;;;;;0.25;0.25;;;23.50;99.90;;;;;;5054130;28;20041;-72
2023/08/13 11:07:47;;;;;;;0.40;0.40;;;23.40;99.90;;;;;;5054073;28;20554;-72
2023/08/13 11:10:20;;;;;;;0.20;0.20;;;23.50;99.90;;;;;;5054731;28;20072;-72
2023/08/13 11:12:49;;;;;;;0.68;0.60;;;23.60;99.90;;;;;;5055042;28;20106;-72
2023/08/13 11:15:15;;;;;;;0.22;0.22;;;23.90;99.90;;;;;;5054656;28;20036;-72
2023/08/13 11:17:49;;;;;;;0.25;0.25;;;24.20;99.90;;;;;;5054497;28;20103;-71
2023/08/13 11:20:18;;;;;;;0.20;0.20;;;24.30;99.90;;;;;;5054547;28;20076;-72
2023/08/13 11:22:44;;;;;;;0.20;0.20;;;24.40;99.90;;;;;;5054927;28;20127;-71
2023/08/13 11:25:10;;;;;;;0.20;0.20;;;24.30;99.90;;;;;;5054570;28;20041;-71
2023/08/13 11:27:36;;;;;;;0.20;0.20;;;24.30;99.90;;;;;;5054324;28;20047;-71
2023/08/13 11:30:02;;;;;;;0.57;0.57;;;24.30;99.90;;;;;;5054358;28;20080;-72
2023/08/13 11:32:28;;;;;;;0.40;0.40;;;24.30;99.90;;;;;;5054349;28;20099;-72
2023/08/13 11:34:54;;;;;;;4.97;0.40;;;24.30;99.90;;;;;;5054602;28;20041;-72
2023/08/13 11:37:21;;;;;;;0.50;0.50;;;24.10;99.90;;;;;;5053315;28;20049;-72
2023/08/13 11:39:46;;;;;;;0.40;0.40;;;24.10;99.90;;;;;;5054133;28;20127;-72
2023/08/13 11:42:12;;;;;;;0.20;0.20;;;24.00;99.90;;;;;;5054470;28;20124;-72
2023/08/13 11:44:38;;;;;;;0.20;0.20;;;23.90;99.90;;;;;;5054117;28;20346;-71
2023/08/13 11:47:04;;;;;;;0.28;0.28;;;23.90;99.90;;;;;;5054352;28;20037;-72
2023/08/13 11:49:31;;;;;;;0.30;0.30;;;23.90;99.90;;;;;;5054068;28;20041;-72
2023/08/13 11:51:58;;;;;;;0.30;0.30;;;23.90;99.90;;;;;;5054029;28;20094;-71
2023/08/13 11:54:24;;;;;;;0.20;0.20;;;23.90;99.90;;;;;;5053962;28;20037;-71
2023/08/13 11:56:51;;;;;;;0.20;0.20;;;23.80;99.90;;;;;;5053988;28;20044;-71
2023/08/13 11:59:29;;;;;;;0.30;0.30;;;23.70;99.90;;;;;;5053853;28;20056;-71
2023/08/13 12:01:56;;;;;;;0.35;0.35;;;23.50;99.90;;;;;;5053767;28;20519;-71
2023/08/13 12:04:22;;;;;;;0.20;0.20;;;23.40;99.90;;;;;;5053701;28;20033;-71
2023/08/13 12:06:51;;;;;;;0.28;0.28;;;23.20;99.90;;;;;;5053456;28;20051;-71
2023/08/13 12:09:17;;;;;;;0.40;0.40;;;23.10;99.90;;;;;;5053690;28;20044;-71
2023/08/13 12:11:42;;;;;;;0.45;0.45;;;23.10;99.90;;;;;;5053650;28;20037;-71
2023/08/13 12:14:08;;;;;;;0.40;0.40;;;23.10;99.90;;;;;;5053674;28;20029;-71
2023/08/13 12:16:34;;;;;;;0.30;0.30;;;23.10;99.90;;;;;;5053201;28;20377;-72
2023/08/13 12:19:03;;;;;;;0.20;0.20;;;23.20;99.90;;;;;;5053218;28;20492;-71
2023/08/13 12:21:29;;;;;;;0.28;0.28;;;23.30;99.90;;;;;;5053543;28;20045;-71
2023/08/13 12:23:54;;;;;;;2.07;0.50;;;23.30;99.90;;;;;;5053573;28;20369;-71
2023/08/13 12:26:21;;;;;;;0.30;0.30;;;23.40;99.90;;;;;;5053838;28;20033;-72
2023/08/13 12:28:50;;;;;;;0.35;0.30;;;23.40;99.90;;;;;;5053773;28;20404;-71
2023/08/13 12:31:19;;;;;;;0.20;0.20;;;23.40;99.90;;;;;;5053456;28;20041;-71
2023/08/13 12:33:46;;;;;;;0.80;0.68;;;23.60;99.90;;;;;;5053419;28;20064;-71
2023/08/13 12:36:12;;;;;;;0.20;0.20;;;23.70;99.90;;;;;;5053840;28;20045;-71
2023/08/13 12:38:39;;;;;;;0.20;0.20;;;23.80;99.90;;;;;;5053475;28;20110;-71
2023/08/13 12:41:08;;;;;;;3.72;0.50;;;23.90;99.90;;;;;;5053837;28;20045;-71
2023/08/13 12:43:38;;;;;;;0.30;0.30;;;24.00;99.90;;;;;;5053411;28;20041;-71
2023/08/13 12:46:07;;;;;;;0.20;0.20;;;23.90;99.90;;;;;;5053344;28;20063;-71